Porter County Municipal Airport
KVPZ : rendu visible

Aérodrome :











RETROUVEZ-NOUS SUR...

 
LOGIN :

S'inscrire | Disclaimer

   EN    FR    IT 

 









Légende :    VFR   VFR Marginal   IFR   IFR Intensif   IFR Très Intensif
Visi : 
Plafond : 
>= 8 km
>= 3000ft
5 à 8 km
1000 à 3000 ft
1500m à 5 km
500 à 1000 ft
800 à 1500m
200 à 500 ft
< 800m
< 200 ft
Symboles :   Orages  Brouillard  Fortes neiges  Fortes précipitations  Vent > 20 kt






- Altitude de l'aérodrome : 770 ft


KVPZ - Porter County Municipal

DERNIER METAR :
  • 250756Z AUTO 22008KT 1 1/4SM BR OVC002 01/00 A2980 RMK AO2 SLP097 T00060000

METARs EXPIRÉS :
  • 250656Z AUTO 21008KT 1SM BR OVC002 01/00 A2979 RMK AO2 SLP094 T00110000
  • 250620Z AUTO 21008KT 1 1/2SM BR OVC002 01/00 A2980 RMK AO2 T00110000
  • 250556Z AUTO 22006KT 2SM BR OVC002 01/00 A2981 RMK AO2 SLP099 60000 T00110000 10028 20011 400330011 50003
  • 250544Z AUTO 23006KT 1 1/2SM BR OVC002 01/00 A2981 RMK AO2 T00110000
  • 250520Z AUTO 22008KT 1/2SM FG VV002 01/01 A2981 RMK AO2 T00110006

TAF N/A



MET'MAP, la Météo Aéronautique d'un coup d'oeil ! - Copyright ORBIFLY Décembre 2007 - Disclaimer

ORBIFLY MET'MAP TEAM :

Programmation & Développement : Alexandra Zaïnal
Sur une idée originale de : Baudouin d'Aumeries
Assistance à la programmation : Marc-Olivier Méhu
Soutien technique & logistique : Manuel Goepfert

Contact : metmap@orbifly.com




SOURCES & CREDITS :

   NOAA       Earth
Advisory